sensor_id;sensor_type;location;lat;lon;timestamp;pressure;altitude;pressure_sealevel;temperature;humidity
71795;BME280;59641;45.188;5.712;2023-03-26T00:01:12;99155.19;;;15.96;46.83
71795;BME280;59641;45.188;5.712;2023-03-26T00:03:38;99150.56;;;15.92;47.05
71795;BME280;59641;45.188;5.712;2023-03-26T00:06:07;99155.16;;;15.91;47.05
71795;BME280;59641;45.188;5.712;2023-03-26T00:08:34;99160.84;;;15.90;47.28
71795;BME280;59641;45.188;5.712;2023-03-26T00:11:00;99156.50;;;15.89;46.92
71795;BME280;59641;45.188;5.712;2023-03-26T00:13:26;99157.59;;;15.88;46.94
71795;BME280;59641;45.188;5.712;2023-03-26T00:15:51;99148.09;;;15.85;47.29
71795;BME280;59641;45.188;5.712;2023-03-26T00:18:18;99142.69;;;15.85;47.15
71795;BME280;59641;45.188;5.712;2023-03-26T00:20:46;99124.81;;;15.84;47.18
71795;BME280;59641;45.188;5.712;2023-03-26T00:23:11;99131.31;;;15.83;47.45
71795;BME280;59641;45.188;5.712;2023-03-26T00:25:38;99147.56;;;15.83;47.96
71795;BME280;59641;45.188;5.712;2023-03-26T00:28:06;99147.78;;;15.82;47.60
71795;BME280;59641;45.188;5.712;2023-03-26T00:30:32;99139.13;;;15.80;47.96
71795;BME280;59641;45.188;5.712;2023-03-26T00:33:00;99128.28;;;15.80;47.74
71795;BME280;59641;45.188;5.712;2023-03-26T00:35:25;99121.28;;;15.79;48.07
71795;BME280;59641;45.188;5.712;2023-03-26T00:37:50;99125.88;;;15.78;47.80
71795;BME280;59641;45.188;5.712;2023-03-26T00:40:17;99134.78;;;15.79;47.65
71795;BME280;59641;45.188;5.712;2023-03-26T00:42:43;99135.84;;;15.77;47.48
71795;BME280;59641;45.188;5.712;2023-03-26T00:45:08;99132.34;;;15.77;47.56
71795;BME280;59641;45.188;5.712;2023-03-26T00:47:34;99126.94;;;15.77;47.70
71795;BME280;59641;45.188;5.712;2023-03-26T00:50:00;99109.88;;;15.76;46.99
71795;BME280;59641;45.188;5.712;2023-03-26T00:52:25;99112.59;;;15.76;47.31
71795;BME280;59641;45.188;5.712;2023-03-26T00:54:53;99108.81;;;15.77;47.28
71795;BME280;59641;45.188;5.712;2023-03-26T00:57:19;99101.53;;;15.78;47.52
71795;BME280;59641;45.188;5.712;2023-03-26T00:59:49;99090.94;;;15.76;47.53
71795;BME280;59641;45.188;5.712;2023-03-26T01:02:16;99107.44;;;15.75;47.24
71795;BME280;59641;45.188;5.712;2023-03-26T01:04:56;99100.41;;;15.74;47.64
71795;BME280;59641;45.188;5.712;2023-03-26T01:07:24;99080.91;;;15.72;47.37
71795;BME280;59641;45.188;5.712;2023-03-26T01:09:55;99083.88;;;15.70;47.41
71795;BME280;59641;45.188;5.712;2023-03-26T01:12:23;99094.94;;;15.69;47.06
71795;BME280;59641;45.188;5.712;2023-03-26T01:14:52;99107.66;;;15.68;47.51
71795;BME280;59641;45.188;5.712;2023-03-26T01:17:18;99109.50;;;15.68;47.47
71795;BME280;59641;45.188;5.712;2023-03-26T01:22:14;99135.50;;;15.69;47.91
71795;BME280;59641;45.188;5.712;2023-03-26T01:24:40;99120.63;;;15.66;47.86
71795;BME280;59641;45.188;5.712;2023-03-26T01:27:11;99108.41;;;15.64;48.29
71795;BME280;59641;45.188;5.712;2023-03-26T01:32:39;99112.16;;;15.58;48.18
71795;BME280;59641;45.188;5.712;2023-03-26T01:35:29;99123.50;;;15.54;48.64
71795;BME280;59641;45.188;5.712;2023-03-26T01:46:21;99121.47;;;15.40;48.96
71795;BME280;59641;45.188;5.712;2023-03-26T01:48:48;99109.28;;;15.37;48.80
71795;BME280;59641;45.188;5.712;2023-03-26T01:51:25;99113.06;;;15.36;48.90
71795;BME280;59641;45.188;5.712;2023-03-26T01:53:52;99104.13;;;15.36;49.20
71795;BME280;59641;45.188;5.712;2023-03-26T02:02:01;99093.31;;;15.36;48.83
71795;BME280;59641;45.188;5.712;2023-03-26T02:07:12;99077.09;;;15.36;49.09
71795;BME280;59641;45.188;5.712;2023-03-26T02:09:46;99081.69;;;15.35;49.44
71795;BME280;59641;45.188;5.712;2023-03-26T02:12:15;99074.09;;;15.32;50.01
71795;BME280;59641;45.188;5.712;2023-03-26T02:14:42;99078.44;;;15.33;49.93
71795;BME280;59641;45.188;5.712;2023-03-26T02:17:09;99085.75;;;15.32;50.04
71795;BME280;59641;45.188;5.712;2023-03-26T02:19:36;99081.38;;;15.31;49.74
71795;BME280;59641;45.188;5.712;2023-03-26T02:22:01;99080.81;;;15.29;50.67
71795;BME280;59641;45.188;5.712;2023-03-26T02:24:27;99079.75;;;15.30;50.91
71795;BME280;59641;45.188;5.712;2023-03-26T02:26:52;99075.97;;;15.31;50.51
71795;BME280;59641;45.188;5.712;2023-03-26T02:29:17;99072.47;;;15.31;51.26
71795;BME280;59641;45.188;5.712;2023-03-26T02:31:46;99080.34;;;15.32;51.15
71795;BME280;59641;45.188;5.712;2023-03-26T02:34:13;99087.59;;;15.32;51.34
71795;BME280;59641;45.188;5.712;2023-03-26T02:36:39;99086.53;;;15.33;51.19
71795;BME280;59641;45.188;5.712;2023-03-26T02:39:08;99082.75;;;15.34;51.16
71795;BME280;59641;45.188;5.712;2023-03-26T02:41:33;99080.34;;;15.32;51.89
71795;BME280;59641;45.188;5.712;2023-03-26T02:43:58;99073.31;;;15.37;51.79
71795;BME280;59641;45.188;5.712;2023-03-26T02:46:24;99063.59;;;15.36;51.52
71795;BME280;59641;45.188;5.712;2023-03-26T02:48:50;99055.47;;;15.36;51.70
71795;BME280;59641;45.188;5.712;2023-03-26T02:51:15;99053.00;;;15.34;51.64
71795;BME280;59641;45.188;5.712;2023-03-26T02:53:42;99063.53;;;15.30;51.46
71795;BME280;59641;45.188;5.712;2023-03-26T02:56:08;99066.78;;;15.27;51.49
71795;BME280;59641;45.188;5.712;2023-03-26T02:58:33;99055.09;;;15.22;51.74
71795;BME280;59641;45.188;5.712;2023-03-26T03:00:59;99056.69;;;15.18;51.42
71795;BME280;59641;45.188;5.712;2023-03-26T03:03:27;99042.31;;;15.12;51.89
71795;BME280;59641;45.188;5.712;2023-03-26T03:05:55;99034.16;;;15.07;52.00
71795;BME280;59641;45.188;5.712;2023-03-26T03:08:23;99034.38;;;15.00;51.92
71795;BME280;59641;45.188;5.712;2023-03-26T03:11:01;99029.72;;;14.96;52.10
71795;BME280;59641;45.188;5.712;2023-03-26T03:13:27;99021.03;;;14.88;52.17
71795;BME280;59641;45.188;5.712;2023-03-26T03:15:53;99014.53;;;14.84;52.56
71795;BME280;59641;45.188;5.712;2023-03-26T03:18:19;99008.78;;;14.81;52.54
71795;BME280;59641;45.188;5.712;2023-03-26T03:20:45;98998.28;;;14.79;53.00
71795;BME280;59641;45.188;5.712;2023-03-26T03:23:11;98997.19;;;14.80;53.22
71795;BME280;59641;45.188;5.712;2023-03-26T03:25:36;98996.66;;;14.83;52.63
71795;BME280;59641;45.188;5.712;2023-03-26T03:28:05;98987.50;;;14.84;52.77
71795;BME280;59641;45.188;5.712;2023-03-26T03:30:31;98983.47;;;14.87;52.95
71795;BME280;59641;45.188;5.712;2023-03-26T03:32:57;98974.28;;;14.88;53.22
71795;BME280;59641;45.188;5.712;2023-03-26T03:35:23;98983.75;;;14.90;53.34
71795;BME280;59641;45.188;5.712;2023-03-26T03:37:49;98974.59;;;14.91;53.07
71795;BME280;59641;45.188;5.712;2023-03-26T03:40:14;98958.94;;;14.94;52.55
71795;BME280;59641;45.188;5.712;2023-03-26T03:42:40;98957.56;;;14.91;52.65
71795;BME280;59641;45.188;5.712;2023-03-26T03:45:06;98962.66;;;14.87;52.91
71795;BME280;59641;45.188;5.712;2023-03-26T03:47:31;98955.66;;;14.86;52.91
71795;BME280;59641;45.188;5.712;2023-03-26T03:49:56;98941.31;;;14.86;53.28
71795;BME280;59641;45.188;5.712;2023-03-26T03:52:24;98932.97;;;14.87;53.04
71795;BME280;59641;45.188;5.712;2023-03-26T03:54:50;98933.22;;;14.86;53.08
71795;BME280;59641;45.188;5.712;2023-03-26T03:57:15;98929.94;;;14.84;52.84
71795;BME280;59641;45.188;5.712;2023-03-26T03:59:43;98931.84;;;14.83;53.32
71795;BME280;59641;45.188;5.712;2023-03-26T04:02:08;98928.31;;;14.83;52.88
71795;BME280;59641;45.188;5.712;2023-03-26T04:04:35;98937.25;;;14.83;52.88
71795;BME280;59641;45.188;5.712;2023-03-26T04:07:02;98924.00;;;14.82;52.93
71795;BME280;59641;45.188;5.712;2023-03-26T04:09:28;98924.00;;;14.82;52.83
71795;BME280;59641;45.188;5.712;2023-03-26T04:11:53;98921.03;;;14.83;52.84
71795;BME280;59641;45.188;5.712;2023-03-26T04:14:18;98911.31;;;14.82;52.77
71795;BME280;59641;45.188;5.712;2023-03-26T04:16:44;98904.56;;;14.85;52.88
71795;BME280;59641;45.188;5.712;2023-03-26T04:19:10;98894.81;;;14.84;52.60
71795;BME280;59641;45.188;5.712;2023-03-26T04:21:35;98894.59;;;14.85;52.05
71795;BME280;59641;45.188;5.712;2023-03-26T04:24:03;98898.09;;;14.86;51.89
71795;BME280;59641;45.188;5.712;2023-03-26T04:26:29;98886.22;;;14.87;51.80
71795;BME280;59641;45.188;5.712;2023-03-26T04:28:58;98880.56;;;14.88;51.25
71795;BME280;59641;45.188;5.712;2023-03-26T04:31:26;98883.25;;;14.88;51.10
71795;BME280;59641;45.188;5.712;2023-03-26T04:34:08;98881.09;;;14.90;50.96
71795;BME280;59641;45.188;5.712;2023-03-26T04:36:39;98877.34;;;14.91;50.87
71795;BME280;59641;45.188;5.712;2023-03-26T04:39:10;98876.00;;;14.94;50.86
71795;BME280;59641;45.188;5.712;2023-03-26T04:41:37;98872.22;;;14.95;50.67
71795;BME280;59641;45.188;5.712;2023-03-26T04:44:02;98860.09;;;14.98;50.53
71795;BME280;59641;45.188;5.712;2023-03-26T04:46:28;98860.09;;;14.98;50.54
71795;BME280;59641;45.188;5.712;2023-03-26T04:48:58;98854.44;;;14.99;50.58
71795;BME280;59641;45.188;5.712;2023-03-26T04:51:34;98849.03;;;14.99;50.12
71795;BME280;59641;45.188;5.712;2023-03-26T04:54:02;98855.22;;;15.00;50.60
71795;BME280;59641;45.188;5.712;2023-03-26T04:56:45;98847.69;;;15.02;49.97
71795;BME280;59641;45.188;5.712;2023-03-26T04:59:23;98834.97;;;15.02;50.16
71795;BME280;59641;45.188;5.712;2023-03-26T05:01:51;98828.53;;;15.03;50.22
71795;BME280;59641;45.188;5.712;2023-03-26T05:04:17;98827.69;;;15.03;49.89
71795;BME280;59641;45.188;5.712;2023-03-26T05:06:42;98828.53;;;15.03;49.74
71795;BME280;59641;45.188;5.712;2023-03-26T05:09:08;98829.34;;;15.04;49.42
71795;BME280;59641;45.188;5.712;2023-03-26T05:11:35;98828.81;;;15.07;49.71
71795;BME280;59641;45.188;5.712;2023-03-26T05:14:00;98818.53;;;15.09;49.36
71795;BME280;59641;45.188;5.712;2023-03-26T05:16:27;98805.84;;;15.09;49.07
71795;BME280;59641;45.188;5.712;2023-03-26T05:18:52;98809.34;;;15.10;49.38
71795;BME280;59641;45.188;5.712;2023-03-26T05:21:18;98818.00;;;15.12;49.08
71795;BME280;59641;45.188;5.712;2023-03-26T05:23:44;98818.56;;;15.14;49.16
71795;BME280;59641;45.188;5.712;2023-03-26T05:26:10;98825.34;;;15.17;49.65
71795;BME280;59641;45.188;5.712;2023-03-26T05:28:35;98840.50;;;15.18;49.45
71795;BME280;59641;45.188;5.712;2023-03-26T05:31:01;98852.09;;;15.18;49.33
71795;BME280;59641;45.188;5.712;2023-03-26T05:33:27;98830.47;;;15.18;49.73
71795;BME280;59641;45.188;5.712;2023-03-26T05:36:04;98829.16;;;15.21;49.68
71795;BME280;59641;45.188;5.712;2023-03-26T05:38:32;98826.13;;;15.17;49.38
71795;BME280;59641;45.188;5.712;2023-03-26T05:41:02;98820.19;;;15.15;49.63
71795;BME280;59641;45.188;5.712;2023-03-26T05:43:29;98833.69;;;15.15;50.01
71795;BME280;59641;45.188;5.712;2023-03-26T05:45:55;98829.38;;;15.14;50.30
71795;BME280;59641;45.188;5.712;2023-03-26T05:48:21;98815.06;;;15.13;50.22
71795;BME280;59641;45.188;5.712;2023-03-26T05:50:47;98809.34;;;15.10;50.29
71795;BME280;59641;45.188;5.712;2023-03-26T05:53:13;98811.25;;;15.09;50.35
71795;BME280;59641;45.188;5.712;2023-03-26T05:55:39;98803.94;;;15.10;49.94
71795;BME280;59641;45.188;5.712;2023-03-26T05:58:05;98806.94;;;15.08;49.92
71795;BME280;59641;45.188;5.712;2023-03-26T06:00:30;98788.00;;;15.08;50.29
71795;BME280;59641;45.188;5.712;2023-03-26T06:02:57;98797.19;;;15.07;50.03
71795;BME280;59641;45.188;5.712;2023-03-26T06:05:23;98788.00;;;15.08;50.40
71795;BME280;59641;45.188;5.712;2023-03-26T06:07:50;98778.00;;;15.09;50.04
71795;BME280;59641;45.188;5.712;2023-03-26T06:10:15;98790.97;;;15.07;50.54
71795;BME280;59641;45.188;5.712;2023-03-26T06:12:41;98793.41;;;15.08;50.83
71795;BME280;59641;45.188;5.712;2023-03-26T06:15:07;98814.19;;;15.03;51.33
71795;BME280;59641;45.188;5.712;2023-03-26T06:17:33;98827.13;;;15.01;51.41
71795;BME280;59641;45.188;5.712;2023-03-26T06:19:58;98829.81;;;14.96;51.74
71795;BME280;59641;45.188;5.712;2023-03-26T06:22:24;98831.97;;;14.94;51.80
71795;BME280;59641;45.188;5.712;2023-03-26T06:24:49;98837.06;;;14.90;52.65
71795;BME280;59641;45.188;5.712;2023-03-26T06:27:16;98834.38;;;14.90;53.14
71795;BME280;59641;45.188;5.712;2023-03-26T06:29:42;98827.06;;;14.90;52.80
71795;BME280;59641;45.188;5.712;2023-03-26T06:32:07;98832.75;;;14.89;53.46
71795;BME280;59641;45.188;5.712;2023-03-26T06:34:33;98846.78;;;14.86;53.93
71795;BME280;59641;45.188;5.712;2023-03-26T06:36:58;98828.69;;;14.86;53.48
71795;BME280;59641;45.188;5.712;2023-03-26T06:39:23;98823.78;;;14.83;54.50
71795;BME280;59641;45.188;5.712;2023-03-26T06:41:49;98804.34;;;14.81;54.61
71795;BME280;59641;45.188;5.712;2023-03-26T06:44:14;98814.84;;;14.78;55.26
71795;BME280;59641;45.188;5.712;2023-03-26T06:46:40;98841.06;;;14.77;55.67
71795;BME280;59641;45.188;5.712;2023-03-26T06:49:05;98842.13;;;14.76;56.08
71795;BME280;59641;45.188;5.712;2023-03-26T06:51:30;98829.69;;;14.75;56.33
71795;BME280;59641;45.188;5.712;2023-03-26T06:53:56;98801.03;;;14.74;56.17
71795;BME280;59641;45.188;5.712;2023-03-26T06:56:21;98796.19;;;14.71;56.15
71795;BME280;59641;45.188;5.712;2023-03-26T06:58:46;98819.91;;;14.69;55.88
71795;BME280;59641;45.188;5.712;2023-03-26T07:01:12;98812.09;;;14.67;56.37
71795;BME280;59641;45.188;5.712;2023-03-26T07:03:37;98816.13;;;14.65;56.10
71795;BME280;59641;45.188;5.712;2023-03-26T07:06:03;98815.56;;;14.63;56.58
71795;BME280;59641;45.188;5.712;2023-03-26T07:08:28;98799.38;;;14.63;56.23
71795;BME280;59641;45.188;5.712;2023-03-26T07:10:55;98802.56;;;14.60;56.21
71795;BME280;59641;45.188;5.712;2023-03-26T07:13:21;98803.38;;;14.55;55.82
71795;BME280;59641;45.188;5.712;2023-03-26T07:15:47;98794.66;;;14.48;56.67
71795;BME280;59641;45.188;5.712;2023-03-26T07:18:12;98812.16;;;14.45;56.25
71795;BME280;59641;45.188;5.712;2023-03-26T07:20:38;98824.28;;;14.43;56.96
71795;BME280;59641;45.188;5.712;2023-03-26T07:23:04;98821.06;;;14.41;56.85
71795;BME280;59641;45.188;5.712;2023-03-26T07:25:29;98831.00;;;14.40;56.98
71795;BME280;59641;45.188;5.712;2023-03-26T07:28:33;98839.94;;;14.41;57.49
71795;BME280;59641;45.188;5.712;2023-03-26T07:33:48;98834.00;;;14.39;57.04
71795;BME280;59641;45.188;5.712;2023-03-26T07:38:55;98840.72;;;14.36;58.03
71795;BME280;59641;45.188;5.712;2023-03-26T07:46:59;98825.63;;;14.40;57.80
71795;BME280;59641;45.188;5.712;2023-03-26T07:49:26;98823.47;;;14.42;58.15
71795;BME280;59641;45.188;5.712;2023-03-26T07:51:53;98829.69;;;14.43;58.12
71795;BME280;59641;45.188;5.712;2023-03-26T07:54:19;98839.16;;;14.45;58.77
71795;BME280;59641;45.188;5.712;2023-03-26T07:56:49;98833.50;;;14.47;58.10
71795;BME280;59641;45.188;5.712;2023-03-26T07:59:29;98827.84;;;14.48;57.78
71795;BME280;59641;45.188;5.712;2023-03-26T08:07:55;98842.72;;;14.51;58.02
71795;BME280;59641;45.188;5.712;2023-03-26T08:11:06;98848.13;;;14.51;58.27
71795;BME280;59641;45.188;5.712;2023-03-26T08:16:18;98852.44;;;14.52;58.41
71795;BME280;59641;45.188;5.712;2023-03-26T08:21:50;98857.00;;;14.46;58.39
71795;BME280;59641;45.188;5.712;2023-03-26T08:27:40;98849.66;;;14.42;58.21
71795;BME280;59641;45.188;5.712;2023-03-26T08:30:10;98853.13;;;14.37;58.94
71795;BME280;59641;45.188;5.712;2023-03-26T08:32:38;98861.47;;;14.36;58.77
71795;BME280;59641;45.188;5.712;2023-03-26T08:35:04;98858.25;;;14.34;58.78
71795;BME280;59641;45.188;5.712;2023-03-26T08:37:30;98857.13;;;14.30;58.92
71795;BME280;59641;45.188;5.712;2023-03-26T08:39:55;98845.75;;;14.27;58.87
71795;BME280;59641;45.188;5.712;2023-03-26T08:45:55;98856.69;;;14.11;59.00
71795;BME280;59641;45.188;5.712;2023-03-26T08:48:49;98859.56;;;14.04;59.08
71795;BME280;59641;45.188;5.712;2023-03-26T09:16:09;98893.88;;;13.81;61.29
71795;BME280;59641;45.188;5.712;2023-03-26T09:36:17;98894.63;;;13.77;61.67
71795;BME280;59641;45.188;5.712;2023-03-26T09:38:51;98872.72;;;13.73;61.89
71795;BME280;59641;45.188;5.712;2023-03-26T09:44:30;98898.31;;;13.71;62.50
71795;BME280;59641;45.188;5.712;2023-03-26T09:55:19;98880.81;;;13.73;62.85
71795;BME280;59641;45.188;5.712;2023-03-26T10:03:40;98861.19;;;13.78;62.67
71795;BME280;59641;45.188;5.712;2023-03-26T10:12:07;98871.97;;;13.78;62.98
71795;BME280;59641;45.188;5.712;2023-03-26T10:27:00;98844.06;;;13.89;63.53
71795;BME280;59641;45.188;5.712;2023-03-26T10:34:54;98818.78;;;13.95;63.61
71795;BME280;59641;45.188;5.712;2023-03-26T10:37:35;98823.91;;;13.97;63.48
71795;BME280;59641;45.188;5.712;2023-03-26T10:42:58;98804.53;;;14.00;63.84
71795;BME280;59641;45.188;5.712;2023-03-26T10:54:21;98770.91;;;14.13;63.70
71795;BME280;59641;45.188;5.712;2023-03-26T10:56:53;98790.34;;;14.15;64.24
71795;BME280;59641;45.188;5.712;2023-03-26T10:59:19;98793.34;;;14.18;64.51
71795;BME280;59641;45.188;5.712;2023-03-26T11:01:51;98790.94;;;14.22;64.45
71795;BME280;59641;45.188;5.712;2023-03-26T11:14:34;98792.88;;;14.26;63.91
71795;BME280;59641;45.188;5.712;2023-03-26T11:20:08;98765.13;;;14.31;64.10
71795;BME280;59641;45.188;5.712;2023-03-26T11:23:02;98768.63;;;14.32;63.82
71795;BME280;59641;45.188;5.712;2023-03-26T11:25:47;98778.84;;;14.30;64.10
71795;BME280;59641;45.188;5.712;2023-03-26T11:33:28;98781.06;;;14.38;63.95
71795;BME280;59641;45.188;5.712;2023-03-26T11:36:01;98771.91;;;14.39;64.36
71795;BME280;59641;45.188;5.712;2023-03-26T11:38:39;98763.28;;;14.42;64.63
71795;BME280;59641;45.188;5.712;2023-03-26T11:41:14;98772.19;;;14.42;64.14
71795;BME280;59641;45.188;5.712;2023-03-26T11:43:40;98771.94;;;14.44;63.81
71795;BME280;59641;45.188;5.712;2023-03-26T11:46:11;98762.50;;;14.46;63.74
71795;BME280;59641;45.188;5.712;2023-03-26T11:48:47;98752.28;;;14.48;64.35
71795;BME280;59641;45.188;5.712;2023-03-26T11:51:32;98747.44;;;14.51;63.84
71795;BME280;59641;45.188;5.712;2023-03-26T11:54:02;98753.63;;;14.51;64.43
71795;BME280;59641;45.188;5.712;2023-03-26T11:56:48;98737.75;;;14.55;64.36
71795;BME280;59641;45.188;5.712;2023-03-26T12:01:58;98761.81;;;14.61;64.57
71795;BME280;59641;45.188;5.712;2023-03-26T12:07:06;98757.31;;;14.72;64.70
71795;BME280;59641;45.188;5.712;2023-03-26T12:09:33;98753.53;;;14.78;64.70
71795;BME280;59641;45.188;5.712;2023-03-26T12:12:00;98753.84;;;14.82;64.06
71795;BME280;59641;45.188;5.712;2023-03-26T12:14:29;98757.06;;;14.84;63.77
71795;BME280;59641;45.188;5.712;2023-03-26T12:17:04;98735.78;;;14.87;64.22
71795;BME280;59641;45.188;5.712;2023-03-26T12:19:37;98714.19;;;14.93;63.60
71795;BME280;59641;45.188;5.712;2023-03-26T12:22:04;98693.13;;;14.95;63.86
71795;BME280;59641;45.188;5.712;2023-03-26T12:24:32;98678.28;;;14.97;63.80
71795;BME280;59641;45.188;5.712;2023-03-26T12:27:19;98684.50;;;15.03;63.39
71795;BME280;59641;45.188;5.712;2023-03-26T12:29:58;98682.34;;;15.05;63.38
71795;BME280;59641;45.188;5.712;2023-03-26T12:32:24;98671.28;;;15.06;63.42
71795;BME280;59641;45.188;5.712;2023-03-26T12:34:56;98678.03;;;15.09;63.14
71795;BME280;59641;45.188;5.712;2023-03-26T12:37:38;98677.50;;;15.12;62.57
71795;BME280;59641;45.188;5.712;2023-03-26T12:40:31;98675.59;;;15.12;63.04
71795;BME280;59641;45.188;5.712;2023-03-26T12:43:26;98672.91;;;15.12;62.52
71795;BME280;59641;45.188;5.712;2023-03-26T12:45:54;98666.16;;;15.15;62.88
71795;BME280;59641;45.188;5.712;2023-03-26T12:48:23;98675.91;;;15.16;62.15
71795;BME280;59641;45.188;5.712;2023-03-26T12:56:30;98670.75;;;15.20;62.48
71795;BME280;59641;45.188;5.712;2023-03-26T13:01:36;98647.53;;;15.24;62.39
71795;BME280;59641;45.188;5.712;2023-03-26T13:17:25;98660.81;;;15.41;62.16
71795;BME280;59641;45.188;5.712;2023-03-26T13:28:23;98774.56;;;15.24;58.97
71795;BME280;59641;45.188;5.712;2023-03-26T13:33:34;98706.63;;;15.00;58.50
71795;BME280;59641;45.188;5.712;2023-03-26T13:36:15;98743.09;;;14.92;59.10
71795;BME280;59641;45.188;5.712;2023-03-26T13:38:48;98759.28;;;14.92;59.06
71795;BME280;59641;45.188;5.712;2023-03-26T13:46:54;98729.78;;;14.75;58.67
71795;BME280;59641;45.188;5.712;2023-03-26T13:49:40;98717.06;;;14.70;58.11
71795;BME280;59641;45.188;5.712;2023-03-26T13:52:11;98718.13;;;14.69;58.04
71795;BME280;59641;45.188;5.712;2023-03-26T13:54:47;98711.41;;;14.72;57.84
71795;BME280;59641;45.188;5.712;2023-03-26T13:57:22;98709.78;;;14.76;58.30
71795;BME280;59641;45.188;5.712;2023-03-26T14:02:41;98707.66;;;14.83;57.74
71795;BME280;59641;45.188;5.712;2023-03-26T14:08:20;98712.81;;;14.90;57.25
71795;BME280;59641;45.188;5.712;2023-03-26T14:10:54;98710.66;;;14.92;57.05
71795;BME280;59641;45.188;5.712;2023-03-26T14:13:30;98712.03;;;14.95;57.12
71795;BME280;59641;45.188;5.712;2023-03-26T14:16:03;98706.63;;;15.00;57.41
71795;BME280;59641;45.188;5.712;2023-03-26T14:18:48;98700.72;;;15.08;57.79
71795;BME280;59641;45.188;5.712;2023-03-26T14:29:40;98690.78;;;15.24;57.39
71795;BME280;59641;45.188;5.712;2023-03-26T14:35:15;98675.91;;;15.31;57.49
71795;BME280;59641;45.188;5.712;2023-03-26T14:44:12;98666.19;;;15.36;56.90
71795;BME280;59641;45.188;5.712;2023-03-26T14:55:04;98656.75;;;15.38;55.92
71795;BME280;59641;45.188;5.712;2023-03-26T15:12:26;98648.63;;;15.48;55.86
71795;BME280;59641;45.188;5.712;2023-03-26T15:24:36;98641.06;;;15.55;56.26
71795;BME280;59641;45.188;5.712;2023-03-26T15:54:21;98599.69;;;15.55;55.04
71795;BME280;59641;45.188;5.712;2023-03-26T16:05:23;98582.69;;;15.54;52.76
71795;BME280;59641;45.188;5.712;2023-03-26T16:08:22;98578.88;;;15.55;52.68
71795;BME280;59641;45.188;5.712;2023-03-26T16:10:54;98575.63;;;15.53;52.40
71795;BME280;59641;45.188;5.712;2023-03-26T16:18:38;98566.72;;;15.53;50.95
71795;BME280;59641;45.188;5.712;2023-03-26T16:24:10;98548.59;;;15.53;51.76
71795;BME280;59641;45.188;5.712;2023-03-26T16:31:58;98534.81;;;15.50;51.85
71795;BME280;59641;45.188;5.712;2023-03-26T16:34:27;98532.38;;;15.48;51.94
71795;BME280;59641;45.188;5.712;2023-03-26T16:37:04;98518.06;;;15.48;52.28
71795;BME280;59641;45.188;5.712;2023-03-26T16:39:39;98514.25;;;15.49;52.08
71795;BME280;59641;45.188;5.712;2023-03-26T16:42:26;98510.75;;;15.48;52.54
71795;BME280;59641;45.188;5.712;2023-03-26T16:45:09;98508.03;;;15.48;52.36
71795;BME280;59641;45.188;5.712;2023-03-26T16:50:55;98493.19;;;15.46;51.57
71795;BME280;59641;45.188;5.712;2023-03-26T16:54:00;98494.53;;;15.43;52.09
71795;BME280;59641;45.188;5.712;2023-03-26T17:02:20;98483.19;;;15.41;52.77
71795;BME280;59641;45.188;5.712;2023-03-26T17:04:53;98475.38;;;15.40;52.68
71795;BME280;59641;45.188;5.712;2023-03-26T17:07:32;98470.22;;;15.38;52.73
71795;BME280;59641;45.188;5.712;2023-03-26T17:10:32;98462.38;;;15.37;52.01
71795;BME280;59641;45.188;5.712;2023-03-26T17:13:10;98463.47;;;15.36;52.06
71795;BME280;59641;45.188;5.712;2023-03-26T17:18:34;98464.03;;;15.32;51.36
71795;BME280;59641;45.188;5.712;2023-03-26T17:21:16;98453.75;;;15.29;50.71
71795;BME280;59641;45.188;5.712;2023-03-26T17:24:01;98454.03;;;15.28;50.48
71795;BME280;59641;45.188;5.712;2023-03-26T17:26:41;98451.03;;;15.24;50.17
71795;BME280;59641;45.188;5.712;2023-03-26T17:29:32;98454.84;;;15.23;49.92
71795;BME280;59641;45.188;5.712;2023-03-26T17:32:10;98448.34;;;15.19;50.50
71795;BME280;59641;45.188;5.712;2023-03-26T17:37:24;98448.38;;;15.14;50.88
71795;BME280;59641;45.188;5.712;2023-03-26T17:42:31;98444.31;;;15.06;51.31
71795;BME280;59641;45.188;5.712;2023-03-26T17:44:59;98438.38;;;15.04;51.42
71795;BME280;59641;45.188;5.712;2023-03-26T17:52:45;98430.84;;;14.96;52.47
71795;BME280;59641;45.188;5.712;2023-03-26T17:55:19;98433.53;;;14.96;52.32
71795;BME280;59641;45.188;5.712;2023-03-26T17:57:50;98437.59;;;14.94;52.44
71795;BME280;59641;45.188;5.712;2023-03-26T18:00:22;98434.59;;;14.90;53.06
71795;BME280;59641;45.188;5.712;2023-03-26T18:02:57;98430.81;;;14.86;53.03
71795;BME280;59641;45.188;5.712;2023-03-26T18:05:28;98432.47;;;14.82;53.66
71795;BME280;59641;45.188;5.712;2023-03-26T18:08:00;98430.00;;;14.80;54.04
71795;BME280;59641;45.188;5.712;2023-03-26T18:18:48;98404.63;;;14.61;54.58
71795;BME280;59641;45.188;5.712;2023-03-26T18:21:23;98402.47;;;14.58;55.10
71795;BME280;59641;45.188;5.712;2023-03-26T18:23:50;98408.94;;;14.57;55.45
71795;BME280;59641;45.188;5.712;2023-03-26T18:26:22;98410.84;;;14.56;55.15
71795;BME280;59641;45.188;5.712;2023-03-26T18:31:40;98428.13;;;14.55;56.39
71795;BME280;59641;45.188;5.712;2023-03-26T18:34:12;98430.53;;;14.57;56.54
71795;BME280;59641;45.188;5.712;2023-03-26T18:36:38;98428.38;;;14.59;56.59
71795;BME280;59641;45.188;5.712;2023-03-26T18:39:11;98443.22;;;14.61;57.09
71795;BME280;59641;45.188;5.712;2023-03-26T18:41:38;98448.09;;;14.59;57.54
71795;BME280;59641;45.188;5.712;2023-03-26T18:44:14;98447.81;;;14.61;57.97
71795;BME280;59641;45.188;5.712;2023-03-26T18:46:41;98451.06;;;14.58;58.24
71795;BME280;59641;45.188;5.712;2023-03-26T18:49:11;98448.09;;;14.59;58.58
71795;BME280;59641;45.188;5.712;2023-03-26T18:51:38;98447.53;;;14.57;57.99
71795;BME280;59641;45.188;5.712;2023-03-26T18:54:04;98435.66;;;14.53;58.14
71795;BME280;59641;45.188;5.712;2023-03-26T18:56:34;98434.28;;;14.51;58.50
71795;BME280;59641;45.188;5.712;2023-03-26T18:59:03;98442.34;;;14.45;58.69
71795;BME280;59641;45.188;5.712;2023-03-26T19:01:31;98441.00;;;14.43;58.74
71795;BME280;59641;45.188;5.712;2023-03-26T19:04:00;98447.50;;;14.37;57.69